createdAt,value
2022-10-26T02:55:34.276Z,20.15
2022-10-26T02:58:12.619Z,19.65
2022-10-26T03:00:39.970Z,25.90
2022-10-26T03:03:06.720Z,17.13
2022-10-26T03:05:33.791Z,14.90
2022-10-26T03:08:00.859Z,13.32
2022-10-26T03:10:27.935Z,20.10
2022-10-26T03:12:54.908Z,22.30
2022-10-26T03:15:21.953Z,16.00
2022-10-26T03:17:51.959Z,20.50
2022-10-26T03:20:19.250Z,21.90
2022-10-26T03:22:48.366Z,19.10
2022-10-26T03:25:15.893Z,18.05
2022-10-26T03:27:43.164Z,30.80
2022-10-26T03:30:10.611Z,23.80
2022-10-26T03:32:38.458Z,19.27
2022-10-26T03:35:12.694Z,24.45
2022-10-26T03:37:39.392Z,18.10
2022-10-26T03:40:06.543Z,26.38
2022-10-26T03:42:37.280Z,18.45
2022-10-26T03:45:04.742Z,28.92
2022-10-26T03:47:31.450Z,30.23
2022-10-26T03:49:58.332Z,22.50
2022-10-26T03:52:25.303Z,29.65
2022-10-26T03:54:52.416Z,22.63
2022-10-26T03:57:19.093Z,23.55
2022-10-26T03:59:45.789Z,30.25
2022-10-26T04:02:12.527Z,23.42
2022-10-26T04:04:39.271Z,24.17
2022-10-26T04:07:06.011Z,19.35
2022-10-26T04:09:32.708Z,30.88
2022-10-26T04:11:59.412Z,28.00
2022-10-26T04:14:26.188Z,22.77
2022-10-26T04:16:52.896Z,25.33
2022-10-26T04:19:19.956Z,31.05
2022-10-26T04:21:46.688Z,18.75
2022-10-26T04:24:13.397Z,26.80
2022-10-26T04:26:40.096Z,25.15
2022-10-26T04:29:07.756Z,20.38
2022-10-26T04:31:34.523Z,21.33
2022-10-26T04:34:01.396Z,24.02
2022-10-26T04:36:28.072Z,23.52
2022-10-26T04:38:54.778Z,25.92
2022-10-26T04:41:21.495Z,23.77
2022-10-26T04:43:48.190Z,24.23
2022-10-26T04:46:16.780Z,25.27
2022-10-26T04:48:43.689Z,30.48
2022-10-26T04:51:10.556Z,29.58
2022-10-26T04:53:37.297Z,28.27
2022-10-26T04:56:04.122Z,28.17
2022-10-26T04:58:31.070Z,31.80
2022-10-26T05:00:57.895Z,26.63
2022-10-26T05:03:24.660Z,31.20
2022-10-26T05:05:51.402Z,29.10
2022-10-26T05:08:18.229Z,26.77
2022-10-26T05:10:50.059Z,21.98
2022-10-26T05:13:17.212Z,25.77
2022-10-26T05:15:43.966Z,30.75
2022-10-26T05:18:10.713Z,30.58
2022-10-26T05:20:37.780Z,18.55
2022-10-26T05:23:10.508Z,28.33
2022-10-26T05:25:38.659Z,18.98
2022-10-26T05:28:08.120Z,24.45
2022-10-26T05:30:35.237Z,26.67
2022-10-26T05:33:03.444Z,28.58
2022-10-26T05:35:31.579Z,26.65
2022-10-26T05:38:03.359Z,25.73
2022-10-26T05:51:19.256Z,19.80
2022-10-26T05:53:46.138Z,17.38
2022-10-26T05:56:35.842Z,22.17
2022-10-26T05:59:03.842Z,32.97
2022-10-26T06:01:56.188Z,23.92
2022-10-26T06:10:14.150Z,32.20
2022-10-26T06:15:22.445Z,32.13
2022-10-26T06:18:09.048Z,41.28
2022-10-26T06:38:31.681Z,25.90
2022-10-26T06:41:00.261Z,25.25
2022-10-26T06:43:31.250Z,29.90
2022-10-26T06:46:35.724Z,23.60
2022-10-26T06:49:42.609Z,20.23
2022-10-26T06:52:21.042Z,25.90
2022-10-26T06:54:51.835Z,20.33
2022-10-26T06:57:26.243Z,31.90
2022-10-26T07:00:01.510Z,29.33
2022-10-26T07:02:29.173Z,29.08
2022-10-26T07:04:57.797Z,34.70
2022-10-26T07:07:27.960Z,34.60
2022-10-26T07:09:58.873Z,24.90
2022-10-26T07:17:50.587Z,35.40
2022-10-26T07:20:21.584Z,25.80
2022-10-26T07:23:08.116Z,28.02
2022-10-26T07:41:50.712Z,21.80
2022-10-26T07:44:19.179Z,23.90
2022-10-26T07:46:46.020Z,29.10
2022-10-26T07:49:15.182Z,25.90
2022-10-26T07:51:47.762Z,31.77
2022-10-26T07:54:15.171Z,43.67
2022-10-26T07:56:42.602Z,29.15
2022-10-26T07:59:14.012Z,31.35
2022-10-26T08:04:25.761Z,31.73
2022-10-26T08:09:43.828Z,33.17
2022-10-26T08:12:16.914Z,35.85
2022-10-26T08:47:49.001Z,37.47
2022-10-26T08:53:44.673Z,44.13
2022-10-26T09:07:21.527Z,33.33
2022-10-26T09:50:39.443Z,37.80
2022-10-26T11:43:45.226Z,3.78
2022-10-26T11:46:30.454Z,6.97
2022-10-26T11:49:22.614Z,2.97
2022-10-26T11:51:55.346Z,3.70
2022-10-26T11:54:32.564Z,4.30
2022-10-26T11:57:00.656Z,3.28
2022-10-26T11:59:33.332Z,2.78
2022-10-26T12:02:12.372Z,2.78
2022-10-26T12:04:40.465Z,1.63
2022-10-26T12:07:20.719Z,4.95
2022-10-26T12:09:47.424Z,3.85
2022-10-26T12:12:20.206Z,2.20
2022-10-26T12:15:16.173Z,2.95
2022-10-26T12:17:50.573Z,7.78
2022-10-26T12:20:42.501Z,6.93
2022-10-26T12:23:16.160Z,12.15
2022-10-26T12:25:50.270Z,13.85
2022-10-26T12:28:35.467Z,10.07
2022-10-26T12:31:33.636Z,21.35
2022-10-26T12:34:03.863Z,16.83
2022-10-26T12:36:49.124Z,11.38
2022-10-26T12:39:41.421Z,7.68
2022-10-26T12:42:08.054Z,13.93
2022-10-26T12:44:54.934Z,8.93
2022-10-26T12:47:27.786Z,13.38
2022-10-26T12:50:06.671Z,10.32
2022-10-26T12:52:48.031Z,10.70
2022-10-26T12:55:29.659Z,11.88
2022-10-26T12:58:18.018Z,13.98
2022-10-26T13:01:27.361Z,13.70
2022-10-26T13:04:00.165Z,11.95
2022-10-26T13:06:36.959Z,12.15
2022-10-26T13:09:21.241Z,22.35
2022-10-26T13:11:55.648Z,19.38
2022-10-26T13:14:54.684Z,12.10
2022-10-26T13:17:31.260Z,18.23
2022-10-26T13:20:01.057Z,15.48
2022-10-26T13:22:28.552Z,13.27
2022-10-26T13:25:01.899Z,15.93
2022-10-26T13:27:35.134Z,15.98
2022-10-26T13:32:35.882Z,17.63
2022-10-26T13:35:04.825Z,14.00
2022-10-26T13:37:34.131Z,13.98
2022-10-26T13:40:04.400Z,15.82
2022-10-26T13:42:45.268Z,22.10
2022-10-26T13:45:34.916Z,17.52
2022-10-26T13:48:08.604Z,18.45
2022-10-26T13:50:47.406Z,27.45
2022-10-26T13:53:38.934Z,27.25
2022-10-26T13:58:59.560Z,19.98
2022-10-26T14:01:28.677Z,19.40
2022-10-26T14:03:56.049Z,19.20
2022-10-26T14:06:37.506Z,18.02
2022-10-26T14:09:11.487Z,22.80
2022-10-26T14:11:55.236Z,28.73
2022-10-26T14:14:26.195Z,30.50
2022-10-26T14:16:54.458Z,23.83
2022-10-26T14:19:28.729Z,34.20
2022-10-26T14:21:57.801Z,19.27
2022-10-26T14:24:45.741Z,25.67
2022-10-26T14:27:24.988Z,25.08
2022-10-26T14:30:20.520Z,20.52
2022-10-26T14:32:44.470Z,27.23
2022-10-26T14:35:15.163Z,39.40
2022-10-26T14:37:56.483Z,23.25
2022-10-26T14:40:27.220Z,28.58
2022-10-26T14:42:59.759Z,28.33
2022-10-26T14:45:54.360Z,27.25
2022-10-26T14:48:24.340Z,25.73
2022-10-26T14:51:18.381Z,27.27
2022-10-26T14:53:51.559Z,28.60
2022-10-26T14:56:31.177Z,19.45
2022-10-26T14:58:58.891Z,25.25
2022-10-26T15:01:31.735Z,21.50
2022-10-26T15:04:07.190Z,20.77
2022-10-26T15:06:42.050Z,35.50
2022-10-26T15:09:33.007Z,24.65
2022-10-26T15:12:00.590Z,18.90
2022-10-26T15:14:27.605Z,26.48
2022-10-26T15:16:57.502Z,26.77
2022-10-26T15:19:26.119Z,28.77
2022-10-26T15:21:58.187Z,22.60
2022-10-26T15:24:46.976Z,22.48
2022-10-26T15:39:16.071Z,18.75
2022-10-26T15:44:31.889Z,19.38
2022-10-26T15:47:08.981Z,16.58
2022-10-26T15:49:38.577Z,16.23
2022-10-26T15:52:10.469Z,20.67
2022-10-26T15:54:41.165Z,17.50
2022-10-26T15:57:15.412Z,18.40
2022-10-26T15:59:45.096Z,16.10
2022-10-26T16:02:17.014Z,14.40
2022-10-26T16:04:44.458Z,18.63
2022-10-26T16:07:20.952Z,12.93
2022-10-26T16:09:52.439Z,23.48
2022-10-26T16:17:42.087Z,14.27
2022-10-26T16:20:19.538Z,16.98
2022-10-26T16:23:01.505Z,20.00
2022-10-26T16:25:39.551Z,15.88
2022-10-26T16:52:17.276Z,10.45
2022-10-26T17:00:07.780Z,16.70
2022-10-26T17:05:16.680Z,8.45
2022-10-26T17:07:48.434Z,10.40
2022-10-26T17:15:37.488Z,13.80
2022-10-26T17:53:19.953Z,14.85
2022-10-26T17:55:59.109Z,12.65
2022-10-26T18:14:35.321Z,14.52
2022-10-26T18:19:45.773Z,16.83
2022-10-26T18:24:58.448Z,14.38
2022-10-26T19:02:38.910Z,11.90
2022-10-26T19:05:08.353Z,11.38
2022-10-26T19:07:37.953Z,12.85
2022-10-26T19:10:05.005Z,10.93
2022-10-26T19:12:31.794Z,12.13
2022-10-26T19:14:58.494Z,14.50
2022-10-26T19:17:25.256Z,17.48
2022-10-26T19:19:52.029Z,11.25
2022-10-26T19:22:21.555Z,14.82
2022-10-26T19:24:48.605Z,10.45
2022-10-26T19:29:45.093Z,14.82
2022-10-26T19:32:14.499Z,8.52
2022-10-26T19:34:41.327Z,14.30
2022-10-26T19:37:11.316Z,15.18
2022-10-26T19:39:39.375Z,8.43
2022-10-26T19:42:06.288Z,12.25
2022-10-26T19:44:34.259Z,14.98
2022-10-26T19:47:03.579Z,14.05
2022-10-26T19:49:30.552Z,14.13
2022-10-26T19:52:02.200Z,14.90
2022-10-26T19:54:28.941Z,10.30
2022-10-26T19:56:56.037Z,11.02
2022-10-26T19:59:23.509Z,19.17
2022-10-26T20:01:51.704Z,16.48
2022-10-26T20:04:19.932Z,14.27
2022-10-26T20:06:46.952Z,14.07
2022-10-26T20:09:13.851Z,11.43
2022-10-26T20:11:43.276Z,11.38
2022-10-26T20:14:14.027Z,8.52
2022-10-26T20:16:41.171Z,10.57
2022-10-26T20:19:08.157Z,12.85
2022-10-26T20:21:35.521Z,15.13
2022-10-26T20:24:04.643Z,15.95
2022-10-26T20:26:33.419Z,12.00
2022-10-26T20:29:00.156Z,14.50
2022-10-26T20:31:30.331Z,17.67
2022-10-26T20:33:57.111Z,14.30
2022-10-26T20:36:26.156Z,17.90
2022-10-26T20:38:53.757Z,11.68
2022-10-26T20:41:21.031Z,10.15
2022-10-26T20:43:48.542Z,14.77
2022-10-26T20:46:26.485Z,14.10
2022-10-26T20:48:54.353Z,11.18
2022-10-26T20:51:39.924Z,19.73
2022-10-26T20:54:37.757Z,11.98
2022-10-26T20:57:09.371Z,14.05
2022-10-26T20:59:44.687Z,12.43
2022-10-26T21:02:11.478Z,12.75
2022-10-26T21:04:38.270Z,14.93
2022-10-26T21:07:05.042Z,11.65
2022-10-26T21:09:34.145Z,14.20
2022-10-26T21:12:03.400Z,14.30
2022-10-26T21:14:30.140Z,13.18
2022-10-26T21:16:56.817Z,11.43
2022-10-26T21:19:23.603Z,13.25
2022-10-26T21:21:50.287Z,17.08
2022-10-26T21:24:16.895Z,13.75
2022-10-26T21:26:43.542Z,12.82
2022-10-26T21:29:11.165Z,14.35
2022-10-26T21:31:37.833Z,12.05
2022-10-26T21:34:04.793Z,13.32
2022-10-26T21:36:31.527Z,6.22
2022-10-26T21:38:58.215Z,12.10
2022-10-26T21:44:03.185Z,9.77
2022-10-26T21:46:37.411Z,16.33
2022-10-26T21:49:04.715Z,11.65
2022-10-26T21:51:31.401Z,10.35
2022-10-26T21:53:58.520Z,8.75
2022-10-26T21:56:25.223Z,8.60
2022-10-26T21:58:51.941Z,9.07
2022-10-26T22:01:21.070Z,8.70
2022-10-26T22:03:48.980Z,9.07
2022-10-26T22:08:50.188Z,7.38
2022-10-26T22:11:19.594Z,6.07
2022-10-26T22:13:47.302Z,11.68
2022-10-26T22:16:17.147Z,11.15
2022-10-26T22:18:45.374Z,9.15
2022-10-26T22:21:13.595Z,10.02
2022-10-26T22:23:41.378Z,9.50
2022-10-26T22:26:11.614Z,9.43
2022-10-26T22:28:42.596Z,9.52
2022-10-26T22:31:12.978Z,8.27
2022-10-26T22:33:39.935Z,8.70
2022-10-26T22:36:09.258Z,8.57
2022-10-26T22:38:36.234Z,12.98
2022-10-26T22:41:03.767Z,5.68
2022-10-26T22:43:30.463Z,5.85
2022-10-26T22:46:11.653Z,9.45
2022-10-26T22:48:38.960Z,8.90
2022-10-26T22:51:08.164Z,8.77
2022-10-26T22:53:34.904Z,8.00
2022-10-26T22:56:02.640Z,7.45
2022-10-26T22:58:29.292Z,6.25
2022-10-26T23:01:10.945Z,7.20
2022-10-26T23:03:38.314Z,7.10
2022-10-26T23:06:08.513Z,9.68
2022-10-26T23:08:35.193Z,7.25
2022-10-26T23:11:05.287Z,9.18
2022-10-26T23:13:32.139Z,11.68
2022-10-26T23:16:14.043Z,6.80
2022-10-26T23:18:41.287Z,8.25
2022-10-26T23:21:10.679Z,7.93
2022-10-26T23:23:37.610Z,7.30
2022-10-26T23:26:07.270Z,10.20
2022-10-26T23:28:35.342Z,8.32
2022-10-26T23:31:02.314Z,3.90
2022-10-26T23:33:29.148Z,6.07
2022-10-26T23:35:55.904Z,7.35
2022-10-26T23:38:22.591Z,6.85
2022-10-26T23:40:54.266Z,8.00
2022-10-26T23:43:21.180Z,8.25
2022-10-26T23:45:48.162Z,7.00
2022-10-26T23:48:19.456Z,4.90
2022-10-26T23:50:48.012Z,5.13
2022-10-26T23:53:29.829Z,8.32
2022-10-26T23:55:59.519Z,4.38
2022-10-26T23:58:26.275Z,8.10
